Weather at Alejandro Velasco Astete International Airport

Public forecast

Using degrees Celsius for public forecast. Weather courtesy of forecast.io.

Current aviation weather report (METAR) for Alejandro Velasco Astete International Airport

Report is more than 2 hours old.

Retrieved 2020/09/21 21:00 UTC (4 hours ago):

SPZO 212100Z 03010KT 9999 FEW050 21/02 Q1025 NOSIG RMK BIRD HAZARD RWY 28 PP000

Aviation forecast (TAF) for Alejandro Velasco Astete International Airport

Forecast is more than 6 hours old.

Retrieved 2020/09/21 18:33 UTC (6 hours ago):

TAF SPZO 211707Z 2118/2218 29010KT 9999 SCT050 TX23/2119Z TN04/2211Z BECMG 2122/2200 00000KT